Pagina principale
METAR-TAF:

METAR-TAF

Aeroporti :

Aeroporto di Latina

Latina, Italia

latitudine: 41-33N, longitudine: 012-54E, altezza: 25 m

METAR: mancante

Ora: 21:20 (19:20 UTC)

Previsione

Il bollettino è stato emesso 26 ore e 20 minuti fa, alle 17:00 UTC
Previsione valida dal 22 alle 18 UTC al 23 alle 03 UTC
Vento 6 kt da sud/sud-ovest
Visibilità 10 km o più
Poco nuvoloso ad un'altezza di 3000 ft
Evoluzione graduale
dal 22 alle 18 UTC al 22 alle 20 UTC
Vento 3 kt da direzioni variabili

TAF: LIRL 221700Z 2218/2303 20006KT 9999 FEW030 BECMG 2218/2220 VRB03KT

Osservazioni e previsioni meteorologiche di più di 4000 aeroporti (messaggi METAR e TAF).

Le stazioni disponibili sono rappresentate dai dischi gialli e rossi sulla carta.

Puntare il mouse per vedere il nome della stazione.

Clicca sopra per visualizzare le osservazioni e previsioni meteorologiche.

Per cambiare la mappa : fare clic sui pulsanti verdi con una croce nera per ingrandire, il pulsante verde con un trattino per diminuire, o sulla freccia verde per le mappe adiacenti.


METAR-TAF: